sensor_id;sensor_type;location;lat;lon;timestamp;P1;durP1;ratioP1;P2;durP2;ratioP2
8694;SDS011;65580;49.446;6.854;2023-04-15T00:03:29;11.95;;;3.40;;
8694;SDS011;65580;49.446;6.854;2023-04-15T00:07:37;8.35;;;3.70;;
8694;SDS011;65580;49.446;6.854;2023-04-15T00:11:41;8.13;;;3.50;;
8694;SDS011;65580;49.446;6.854;2023-04-15T00:15:44;9.02;;;4.18;;
8694;SDS011;65580;49.446;6.854;2023-04-15T00:19:48;11.18;;;3.20;;
8694;SDS011;65580;49.446;6.854;2023-04-15T00:23:53;9.18;;;3.58;;
8694;SDS011;65580;49.446;6.854;2023-04-15T00:27:56;7.35;;;3.53;;
8694;SDS011;65580;49.446;6.854;2023-04-15T00:31:59;7.10;;;3.28;;
8694;SDS011;65580;49.446;6.854;2023-04-15T00:36:03;8.85;;;2.85;;
8694;SDS011;65580;49.446;6.854;2023-04-15T00:40:11;8.50;;;2.72;;
8694;SDS011;65580;49.446;6.854;2023-04-15T00:44:15;5.38;;;2.63;;
8694;SDS011;65580;49.446;6.854;2023-04-15T00:48:19;6.03;;;2.80;;
8694;SDS011;65580;49.446;6.854;2023-04-15T00:52:23;9.75;;;3.08;;
8694;SDS011;65580;49.446;6.854;2023-04-15T00:56:28;5.20;;;2.50;;
8694;SDS011;65580;49.446;6.854;2023-04-15T01:00:32;6.40;;;2.40;;
8694;SDS011;65580;49.446;6.854;2023-04-15T01:04:36;5.78;;;2.30;;
8694;SDS011;65580;49.446;6.854;2023-04-15T01:08:40;6.18;;;2.28;;
8694;SDS011;65580;49.446;6.854;2023-04-15T01:12:45;7.10;;;3.20;;
8694;SDS011;65580;49.446;6.854;2023-04-15T01:16:48;11.43;;;3.75;;
8694;SDS011;65580;49.446;6.854;2023-04-15T01:20:52;10.45;;;4.32;;
8694;SDS011;65580;49.446;6.854;2023-04-15T01:24:57;10.70;;;4.93;;
8694;SDS011;65580;49.446;6.854;2023-04-15T01:29:07;11.15;;;5.20;;
8694;SDS011;65580;49.446;6.854;2023-04-15T01:33:11;11.18;;;4.30;;
8694;SDS011;65580;49.446;6.854;2023-04-15T01:37:14;8.07;;;4.35;;
8694;SDS011;65580;49.446;6.854;2023-04-15T01:41:20;12.65;;;5.93;;
8694;SDS011;65580;49.446;6.854;2023-04-15T01:45:27;14.07;;;6.88;;
8694;SDS011;65580;49.446;6.854;2023-04-15T01:49:31;12.23;;;4.95;;
8694;SDS011;65580;49.446;6.854;2023-04-15T01:53:35;11.95;;;5.70;;
8694;SDS011;65580;49.446;6.854;2023-04-15T01:57:38;10.02;;;4.60;;
8694;SDS011;65580;49.446;6.854;2023-04-15T02:01:43;10.05;;;4.70;;
8694;SDS011;65580;49.446;6.854;2023-04-15T02:05:47;13.85;;;5.03;;
8694;SDS011;65580;49.446;6.854;2023-04-15T02:09:51;10.88;;;3.67;;
8694;SDS011;65580;49.446;6.854;2023-04-15T02:13:54;10.40;;;4.68;;
8694;SDS011;65580;49.446;6.854;2023-04-15T02:18:00;10.38;;;4.03;;
8694;SDS011;65580;49.446;6.854;2023-04-15T02:22:03;11.15;;;3.70;;
8694;SDS011;65580;49.446;6.854;2023-04-15T02:26:07;9.25;;;3.90;;
8694;SDS011;65580;49.446;6.854;2023-04-15T02:30:11;6.90;;;2.92;;
8694;SDS011;65580;49.446;6.854;2023-04-15T02:34:17;8.88;;;3.35;;
8694;SDS011;65580;49.446;6.854;2023-04-15T02:38:21;6.88;;;2.65;;
8694;SDS011;65580;49.446;6.854;2023-04-15T02:42:24;5.10;;;2.30;;
8694;SDS011;65580;49.446;6.854;2023-04-15T02:46:29;10.18;;;2.80;;
8694;SDS011;65580;49.446;6.854;2023-04-15T02:50:34;8.00;;;2.80;;
8694;SDS011;65580;49.446;6.854;2023-04-15T02:54:40;10.55;;;3.40;;
8694;SDS011;65580;49.446;6.854;2023-04-15T02:58:44;8.85;;;3.25;;
8694;SDS011;65580;49.446;6.854;2023-04-15T03:02:47;7.80;;;3.83;;
8694;SDS011;65580;49.446;6.854;2023-04-15T03:06:54;4.80;;;2.50;;
8694;SDS011;65580;49.446;6.854;2023-04-15T03:10:59;9.10;;;2.65;;
8694;SDS011;65580;49.446;6.854;2023-04-15T03:15:03;5.78;;;2.60;;
8694;SDS011;65580;49.446;6.854;2023-04-15T03:19:07;5.03;;;2.58;;
8694;SDS011;65580;49.446;6.854;2023-04-15T03:23:12;2.90;;;2.03;;
8694;SDS011;65580;49.446;6.854;2023-04-15T03:27:16;9.20;;;2.22;;
8694;SDS011;65580;49.446;6.854;2023-04-15T03:31:20;5.00;;;2.17;;
8694;SDS011;65580;49.446;6.854;2023-04-15T03:35:23;5.50;;;2.10;;
8694;SDS011;65580;49.446;6.854;2023-04-15T03:39:28;7.15;;;2.45;;
8694;SDS011;65580;49.446;6.854;2023-04-15T03:43:32;6.40;;;2.10;;
8694;SDS011;65580;49.446;6.854;2023-04-15T03:47:35;7.57;;;2.10;;
8694;SDS011;65580;49.446;6.854;2023-04-15T03:51:39;5.43;;;2.83;;
8694;SDS011;65580;49.446;6.854;2023-04-15T03:55:44;6.43;;;2.45;;
8694;SDS011;65580;49.446;6.854;2023-04-15T03:59:48;6.28;;;2.42;;
8694;SDS011;65580;49.446;6.854;2023-04-15T04:03:52;6.65;;;2.45;;
8694;SDS011;65580;49.446;6.854;2023-04-15T04:07:56;7.10;;;2.50;;
8694;SDS011;65580;49.446;6.854;2023-04-15T04:12:02;6.18;;;2.53;;
8694;SDS011;65580;49.446;6.854;2023-04-15T04:16:05;6.82;;;3.63;;
8694;SDS011;65580;49.446;6.854;2023-04-15T04:20:09;7.07;;;3.22;;
8694;SDS011;65580;49.446;6.854;2023-04-15T04:24:13;6.38;;;2.42;;
8694;SDS011;65580;49.446;6.854;2023-04-15T04:28:18;5.47;;;2.63;;
8694;SDS011;65580;49.446;6.854;2023-04-15T04:32:22;6.15;;;2.70;;
8694;SDS011;65580;49.446;6.854;2023-04-15T04:36:26;6.20;;;3.03;;
8694;SDS011;65580;49.446;6.854;2023-04-15T04:40:30;3.95;;;2.13;;
8694;SDS011;65580;49.446;6.854;2023-04-15T04:44:37;9.50;;;3.25;;
8694;SDS011;65580;49.446;6.854;2023-04-15T04:48:42;4.50;;;2.45;;
8694;SDS011;65580;49.446;6.854;2023-04-15T04:52:48;5.82;;;2.30;;
8694;SDS011;65580;49.446;6.854;2023-04-15T04:56:52;5.18;;;2.42;;
8694;SDS011;65580;49.446;6.854;2023-04-15T05:00:58;5.35;;;2.28;;
8694;SDS011;65580;49.446;6.854;2023-04-15T05:05:05;8.68;;;2.28;;
8694;SDS011;65580;49.446;6.854;2023-04-15T05:09:12;8.85;;;1.90;;
8694;SDS011;65580;49.446;6.854;2023-04-15T05:13:17;6.38;;;2.15;;
8694;SDS011;65580;49.446;6.854;2023-04-15T05:17:24;5.20;;;1.80;;
8694;SDS011;65580;49.446;6.854;2023-04-15T05:21:28;4.57;;;1.77;;
8694;SDS011;65580;49.446;6.854;2023-04-15T05:25:34;7.15;;;1.98;;
8694;SDS011;65580;49.446;6.854;2023-04-15T05:29:39;3.55;;;2.25;;
8694;SDS011;65580;49.446;6.854;2023-04-15T05:33:44;8.18;;;2.28;;
8694;SDS011;65580;49.446;6.854;2023-04-15T05:37:48;9.05;;;2.10;;
8694;SDS011;65580;49.446;6.854;2023-04-15T05:41:53;9.35;;;2.80;;
8694;SDS011;65580;49.446;6.854;2023-04-15T05:45:58;6.07;;;2.08;;
8694;SDS011;65580;49.446;6.854;2023-04-15T05:50:05;6.03;;;2.85;;
8694;SDS011;65580;49.446;6.854;2023-04-15T05:54:09;9.82;;;3.70;;
8694;SDS011;65580;49.446;6.854;2023-04-15T05:58:15;7.65;;;2.80;;
8694;SDS011;65580;49.446;6.854;2023-04-15T06:02:20;7.28;;;2.28;;
8694;SDS011;65580;49.446;6.854;2023-04-15T06:06:29;7.47;;;2.65;;
8694;SDS011;65580;49.446;6.854;2023-04-15T06:10:36;10.20;;;2.70;;
8694;SDS011;65580;49.446;6.854;2023-04-15T06:14:40;5.50;;;2.35;;
8694;SDS011;65580;49.446;6.854;2023-04-15T06:18:45;8.80;;;2.50;;
8694;SDS011;65580;49.446;6.854;2023-04-15T06:22:52;9.00;;;2.72;;
8694;SDS011;65580;49.446;6.854;2023-04-15T06:26:58;7.75;;;2.63;;
8694;SDS011;65580;49.446;6.854;2023-04-15T06:31:03;7.78;;;2.50;;
8694;SDS011;65580;49.446;6.854;2023-04-15T06:35:07;5.47;;;2.50;;
8694;SDS011;65580;49.446;6.854;2023-04-15T06:39:14;4.80;;;2.17;;
8694;SDS011;65580;49.446;6.854;2023-04-15T06:43:18;6.07;;;2.47;;
8694;SDS011;65580;49.446;6.854;2023-04-15T06:47:22;7.72;;;2.70;;
8694;SDS011;65580;49.446;6.854;2023-04-15T06:51:27;7.70;;;2.60;;
8694;SDS011;65580;49.446;6.854;2023-04-15T06:55:33;8.70;;;2.78;;
8694;SDS011;65580;49.446;6.854;2023-04-15T06:59:37;5.40;;;2.38;;
8694;SDS011;65580;49.446;6.854;2023-04-15T07:03:41;6.05;;;2.10;;
8694;SDS011;65580;49.446;6.854;2023-04-15T07:07:46;3.65;;;1.85;;
8694;SDS011;65580;49.446;6.854;2023-04-15T07:11:53;5.95;;;2.28;;
8694;SDS011;65580;49.446;6.854;2023-04-15T07:15:57;6.57;;;2.30;;
8694;SDS011;65580;49.446;6.854;2023-04-15T07:20:03;5.07;;;2.08;;
8694;SDS011;65580;49.446;6.854;2023-04-15T07:24:08;4.90;;;2.03;;
8694;SDS011;65580;49.446;6.854;2023-04-15T07:28:14;6.18;;;1.95;;
8694;SDS011;65580;49.446;6.854;2023-04-15T07:32:19;5.15;;;2.00;;
8694;SDS011;65580;49.446;6.854;2023-04-15T07:36:23;5.25;;;1.90;;
8694;SDS011;65580;49.446;6.854;2023-04-15T07:40:29;5.45;;;1.80;;
8694;SDS011;65580;49.446;6.854;2023-04-15T07:44:35;5.45;;;1.40;;
8694;SDS011;65580;49.446;6.854;2023-04-15T07:48:40;4.72;;;1.40;;
8694;SDS011;65580;49.446;6.854;2023-04-15T07:52:45;6.60;;;1.88;;
8694;SDS011;65580;49.446;6.854;2023-04-15T07:56:50;6.10;;;2.30;;
8694;SDS011;65580;49.446;6.854;2023-04-15T08:00:55;5.72;;;1.90;;
8694;SDS011;65580;49.446;6.854;2023-04-15T08:05:00;4.60;;;1.80;;
8694;SDS011;65580;49.446;6.854;2023-04-15T08:09:05;5.30;;;1.90;;
8694;SDS011;65580;49.446;6.854;2023-04-15T08:13:11;4.18;;;1.40;;
8694;SDS011;65580;49.446;6.854;2023-04-15T08:17:17;4.00;;;1.30;;
8694;SDS011;65580;49.446;6.854;2023-04-15T08:21:21;10.65;;;1.25;;
8694;SDS011;65580;49.446;6.854;2023-04-15T08:25:26;5.47;;;1.45;;
8694;SDS011;65580;49.446;6.854;2023-04-15T08:29:30;5.15;;;1.55;;
8694;SDS011;65580;49.446;6.854;2023-04-15T08:33:36;3.92;;;1.17;;
8694;SDS011;65580;49.446;6.854;2023-04-15T08:37:39;4.18;;;1.27;;
8694;SDS011;65580;49.446;6.854;2023-04-15T08:41:45;5.00;;;1.20;;
8694;SDS011;65580;49.446;6.854;2023-04-15T08:45:50;4.72;;;1.25;;
8694;SDS011;65580;49.446;6.854;2023-04-15T08:49:57;6.38;;;1.40;;
8694;SDS011;65580;49.446;6.854;2023-04-15T08:54:02;7.03;;;1.40;;
8694;SDS011;65580;49.446;6.854;2023-04-15T08:58:07;5.53;;;1.33;;
8694;SDS011;65580;49.446;6.854;2023-04-15T09:02:12;4.40;;;1.05;;
8694;SDS011;65580;49.446;6.854;2023-04-15T09:06:19;4.65;;;1.20;;
8694;SDS011;65580;49.446;6.854;2023-04-15T09:10:23;4.78;;;1.02;;
8694;SDS011;65580;49.446;6.854;2023-04-15T09:14:28;3.72;;;1.27;;
8694;SDS011;65580;49.446;6.854;2023-04-15T09:18:33;7.95;;;1.40;;
8694;SDS011;65580;49.446;6.854;2023-04-15T09:22:39;4.18;;;1.20;;
8694;SDS011;65580;49.446;6.854;2023-04-15T09:26:43;3.25;;;1.08;;
8694;SDS011;65580;49.446;6.854;2023-04-15T09:30:47;4.20;;;1.23;;
8694;SDS011;65580;49.446;6.854;2023-04-15T09:34:54;4.78;;;1.00;;
8694;SDS011;65580;49.446;6.854;2023-04-15T09:38:58;3.70;;;1.30;;
8694;SDS011;65580;49.446;6.854;2023-04-15T09:43:02;3.17;;;0.95;;
8694;SDS011;65580;49.446;6.854;2023-04-15T09:47:05;4.80;;;0.90;;
8694;SDS011;65580;49.446;6.854;2023-04-15T09:55:13;3.22;;;1.10;;
8694;SDS011;65580;49.446;6.854;2023-04-15T09:59:17;4.20;;;0.90;;
8694;SDS011;65580;49.446;6.854;2023-04-15T10:03:22;2.67;;;1.02;;
8694;SDS011;65580;49.446;6.854;2023-04-15T10:07:27;1.92;;;0.98;;
8694;SDS011;65580;49.446;6.854;2023-04-15T10:11:33;4.88;;;1.30;;
8694;SDS011;65580;49.446;6.854;2023-04-15T10:15:38;5.10;;;1.10;;
8694;SDS011;65580;49.446;6.854;2023-04-15T10:19:41;2.30;;;0.93;;
8694;SDS011;65580;49.446;6.854;2023-04-15T10:23:45;4.05;;;1.15;;
8694;SDS011;65580;49.446;6.854;2023-04-15T10:27:50;3.10;;;1.25;;
8694;SDS011;65580;49.446;6.854;2023-04-15T10:31:54;2.53;;;0.90;;
8694;SDS011;65580;49.446;6.854;2023-04-15T10:35:57;2.55;;;0.93;;
8694;SDS011;65580;49.446;6.854;2023-04-15T10:40:02;4.90;;;0.95;;
8694;SDS011;65580;49.446;6.854;2023-04-15T10:44:27;6.22;;;0.93;;
8694;SDS011;65580;49.446;6.854;2023-04-15T10:48:31;6.00;;;1.20;;
8694;SDS011;65580;49.446;6.854;2023-04-15T10:56:39;3.22;;;1.10;;
8694;SDS011;65580;49.446;6.854;2023-04-15T11:00:46;3.92;;;0.90;;
8694;SDS011;65580;49.446;6.854;2023-04-15T11:04:53;4.78;;;1.30;;
8694;SDS011;65580;49.446;6.854;2023-04-15T11:08:58;4.30;;;1.10;;
8694;SDS011;65580;49.446;6.854;2023-04-15T11:13:14;3.55;;;1.20;;
8694;SDS011;65580;49.446;6.854;2023-04-15T11:17:27;5.47;;;1.05;;
8694;SDS011;65580;49.446;6.854;2023-04-15T11:21:30;2.78;;;1.08;;
8694;SDS011;65580;49.446;6.854;2023-04-15T11:25:35;3.83;;;0.90;;
8694;SDS011;65580;49.446;6.854;2023-04-15T11:29:39;4.75;;;1.10;;
8694;SDS011;65580;49.446;6.854;2023-04-15T11:37:56;4.22;;;1.10;;
8694;SDS011;65580;49.446;6.854;2023-04-15T11:42:02;3.17;;;1.08;;
8694;SDS011;65580;49.446;6.854;2023-04-15T11:46:05;2.00;;;0.93;;
8694;SDS011;65580;49.446;6.854;2023-04-15T11:50:17;3.53;;;1.10;;
8694;SDS011;65580;49.446;6.854;2023-04-15T11:54:22;5.05;;;1.42;;
8694;SDS011;65580;49.446;6.854;2023-04-15T11:58:28;2.75;;;1.10;;
8694;SDS011;65580;49.446;6.854;2023-04-15T12:02:35;3.50;;;1.13;;
8694;SDS011;65580;49.446;6.854;2023-04-15T12:06:41;6.38;;;1.42;;
8694;SDS011;65580;49.446;6.854;2023-04-15T12:10:44;2.95;;;1.27;;
8694;SDS011;65580;49.446;6.854;2023-04-15T12:14:47;1.70;;;1.00;;
8694;SDS011;65580;49.446;6.854;2023-04-15T12:18:53;3.95;;;1.33;;
8694;SDS011;65580;49.446;6.854;2023-04-15T12:23:05;4.40;;;1.27;;
8694;SDS011;65580;49.446;6.854;2023-04-15T12:27:09;4.32;;;1.48;;
8694;SDS011;65580;49.446;6.854;2023-04-15T12:31:14;5.43;;;1.50;;
8694;SDS011;65580;49.446;6.854;2023-04-15T12:35:18;1.98;;;1.35;;
8694;SDS011;65580;49.446;6.854;2023-04-15T12:39:24;6.15;;;1.50;;
8694;SDS011;65580;49.446;6.854;2023-04-15T12:43:31;5.07;;;1.30;;
8694;SDS011;65580;49.446;6.854;2023-04-15T12:47:34;3.63;;;1.20;;
8694;SDS011;65580;49.446;6.854;2023-04-15T12:51:38;3.50;;;1.13;;
8694;SDS011;65580;49.446;6.854;2023-04-15T12:55:42;4.07;;;1.20;;
8694;SDS011;65580;49.446;6.854;2023-04-15T12:59:46;4.88;;;1.30;;
8694;SDS011;65580;49.446;6.854;2023-04-15T13:03:49;3.70;;;0.98;;
8694;SDS011;65580;49.446;6.854;2023-04-15T13:07:54;2.40;;;1.08;;
8694;SDS011;65580;49.446;6.854;2023-04-15T13:11:59;1.60;;;0.98;;
8694;SDS011;65580;49.446;6.854;2023-04-15T13:16:03;3.22;;;1.20;;
8694;SDS011;65580;49.446;6.854;2023-04-15T13:20:07;3.80;;;1.15;;
8694;SDS011;65580;49.446;6.854;2023-04-15T13:24:11;1.38;;;0.82;;
8694;SDS011;65580;49.446;6.854;2023-04-15T13:28:16;1.98;;;0.80;;
8694;SDS011;65580;49.446;6.854;2023-04-15T13:32:19;0.75;;;0.60;;
8694;SDS011;65580;49.446;6.854;2023-04-15T13:36:23;1.27;;;0.70;;
8694;SDS011;65580;49.446;6.854;2023-04-15T13:40:26;1.60;;;0.80;;
8694;SDS011;65580;49.446;6.854;2023-04-15T13:48:34;1.55;;;1.00;;
8694;SDS011;65580;49.446;6.854;2023-04-15T13:52:38;1.27;;;0.98;;
8694;SDS011;65580;49.446;6.854;2023-04-15T14:00:45;2.72;;;1.20;;
8694;SDS011;65580;49.446;6.854;2023-04-15T14:04:48;2.33;;;1.20;;
8694;SDS011;65580;49.446;6.854;2023-04-15T14:08:51;2.08;;;1.15;;
8694;SDS011;65580;49.446;6.854;2023-04-15T14:12:55;4.45;;;1.25;;
8694;SDS011;65580;49.446;6.854;2023-04-15T14:16:59;4.35;;;1.38;;
8694;SDS011;65580;49.446;6.854;2023-04-15T14:21:04;3.42;;;1.40;;
8694;SDS011;65580;49.446;6.854;2023-04-15T14:25:07;1.95;;;1.20;;
8694;SDS011;65580;49.446;6.854;2023-04-15T14:29:23;3.25;;;1.58;;
8694;SDS011;65580;49.446;6.854;2023-04-15T14:33:28;3.22;;;1.40;;
8694;SDS011;65580;49.446;6.854;2023-04-15T14:37:31;3.45;;;1.63;;
8694;SDS011;65580;49.446;6.854;2023-04-15T14:41:34;2.42;;;1.45;;
8694;SDS011;65580;49.446;6.854;2023-04-15T14:45:38;2.67;;;1.40;;
8694;SDS011;65580;49.446;6.854;2023-04-15T14:49:46;4.32;;;1.30;;
8694;SDS011;65580;49.446;6.854;2023-04-15T14:53:49;3.45;;;1.27;;
8694;SDS011;65580;49.446;6.854;2023-04-15T14:57:53;1.58;;;1.00;;
8694;SDS011;65580;49.446;6.854;2023-04-15T15:01:56;1.60;;;1.08;;
8694;SDS011;65580;49.446;6.854;2023-04-15T15:10:04;1.83;;;1.20;;
8694;SDS011;65580;49.446;6.854;2023-04-15T15:14:08;2.10;;;1.23;;
8694;SDS011;65580;49.446;6.854;2023-04-15T15:18:12;1.70;;;0.90;;
8694;SDS011;65580;49.446;6.854;2023-04-15T15:22:17;1.77;;;1.02;;
8694;SDS011;65580;49.446;6.854;2023-04-15T15:26:21;2.60;;;1.00;;
8694;SDS011;65580;49.446;6.854;2023-04-15T15:30:24;1.63;;;1.10;;
8694;SDS011;65580;49.446;6.854;2023-04-15T15:34:27;1.90;;;1.20;;
8694;SDS011;65580;49.446;6.854;2023-04-15T15:42:35;1.70;;;1.60;;
8694;SDS011;65580;49.446;6.854;2023-04-15T15:46:39;1.80;;;1.58;;
8694;SDS011;65580;49.446;6.854;2023-04-15T15:50:42;3.97;;;1.70;;
8694;SDS011;65580;49.446;6.854;2023-04-15T15:54:47;5.60;;;1.70;;
8694;SDS011;65580;49.446;6.854;2023-04-15T15:58:51;1.90;;;1.80;;
8694;SDS011;65580;49.446;6.854;2023-04-15T16:02:54;4.47;;;2.40;;
8694;SDS011;65580;49.446;6.854;2023-04-15T16:07:01;3.05;;;2.63;;
8694;SDS011;65580;49.446;6.854;2023-04-15T16:11:06;3.92;;;3.22;;
8694;SDS011;65580;49.446;6.854;2023-04-15T16:15:09;3.20;;;2.90;;
8694;SDS011;65580;49.446;6.854;2023-04-15T16:19:13;3.60;;;3.30;;
8694;SDS011;65580;49.446;6.854;2023-04-15T16:23:17;4.00;;;3.60;;
8694;SDS011;65580;49.446;6.854;2023-04-15T16:27:23;4.15;;;3.10;;
8694;SDS011;65580;49.446;6.854;2023-04-15T16:31:26;3.88;;;3.42;;
8694;SDS011;65580;49.446;6.854;2023-04-15T16:35:29;5.90;;;3.00;;
8694;SDS011;65580;49.446;6.854;2023-04-15T16:39:34;3.65;;;3.10;;
8694;SDS011;65580;49.446;6.854;2023-04-15T16:43:39;2.80;;;2.50;;
8694;SDS011;65580;49.446;6.854;2023-04-15T16:47:43;8.40;;;3.40;;
8694;SDS011;65580;49.446;6.854;2023-04-15T16:51:46;5.88;;;2.95;;
8694;SDS011;65580;49.446;6.854;2023-04-15T16:55:49;3.17;;;2.80;;
8694;SDS011;65580;49.446;6.854;2023-04-15T16:59:54;5.13;;;2.70;;
8694;SDS011;65580;49.446;6.854;2023-04-15T17:03:57;3.22;;;2.67;;
8694;SDS011;65580;49.446;6.854;2023-04-15T17:08:00;2.55;;;2.13;;
8694;SDS011;65580;49.446;6.854;2023-04-15T17:12:03;3.17;;;2.40;;
8694;SDS011;65580;49.446;6.854;2023-04-15T17:16:08;5.13;;;2.50;;
8694;SDS011;65580;49.446;6.854;2023-04-15T17:20:11;4.15;;;2.50;;
8694;SDS011;65580;49.446;6.854;2023-04-15T17:24:14;5.05;;;2.45;;
8694;SDS011;65580;49.446;6.854;2023-04-15T17:28:17;3.38;;;2.42;;
8694;SDS011;65580;49.446;6.854;2023-04-15T17:32:21;2.35;;;1.80;;
8694;SDS011;65580;49.446;6.854;2023-04-15T17:36:25;4.82;;;1.85;;
8694;SDS011;65580;49.446;6.854;2023-04-15T17:40:28;2.75;;;1.70;;
8694;SDS011;65580;49.446;6.854;2023-04-15T17:44:30;3.88;;;1.90;;
8694;SDS011;65580;49.446;6.854;2023-04-15T17:48:35;1.80;;;1.38;;
8694;SDS011;65580;49.446;6.854;2023-04-15T17:52:38;2.22;;;1.40;;
8694;SDS011;65580;49.446;6.854;2023-04-15T17:56:41;5.25;;;1.60;;
8694;SDS011;65580;49.446;6.854;2023-04-15T18:00:44;1.65;;;1.20;;
8694;SDS011;65580;49.446;6.854;2023-04-15T18:04:49;1.65;;;1.02;;
8694;SDS011;65580;49.446;6.854;2023-04-15T18:08:52;2.13;;;1.13;;
8694;SDS011;65580;49.446;6.854;2023-04-15T18:12:55;8.05;;;2.35;;
8694;SDS011;65580;49.446;6.854;2023-04-15T18:16:58;3.03;;;1.20;;
8694;SDS011;65580;49.446;6.854;2023-04-15T18:21:03;3.10;;;1.40;;
8694;SDS011;65580;49.446;6.854;2023-04-15T18:25:06;3.92;;;1.40;;
8694;SDS011;65580;49.446;6.854;2023-04-15T18:29:10;3.30;;;1.20;;
8694;SDS011;65580;49.446;6.854;2023-04-15T18:33:13;4.20;;;1.35;;
8694;SDS011;65580;49.446;6.854;2023-04-15T18:37:18;1.80;;;1.30;;
8694;SDS011;65580;49.446;6.854;2023-04-15T18:41:21;2.15;;;1.50;;
8694;SDS011;65580;49.446;6.854;2023-04-15T18:45:25;2.58;;;1.40;;
8694;SDS011;65580;49.446;6.854;2023-04-15T18:49:28;2.25;;;1.40;;
8694;SDS011;65580;49.446;6.854;2023-04-15T18:53:34;2.75;;;1.33;;
8694;SDS011;65580;49.446;6.854;2023-04-15T18:57:37;4.85;;;1.50;;
8694;SDS011;65580;49.446;6.854;2023-04-15T19:01:44;2.28;;;1.58;;
8694;SDS011;65580;49.446;6.854;2023-04-15T19:05:47;3.03;;;1.50;;
8694;SDS011;65580;49.446;6.854;2023-04-15T19:09:53;4.15;;;1.70;;
8694;SDS011;65580;49.446;6.854;2023-04-15T19:13:56;3.13;;;1.90;;
8694;SDS011;65580;49.446;6.854;2023-04-15T19:17:59;3.15;;;1.65;;
8694;SDS011;65580;49.446;6.854;2023-04-15T19:22:02;3.67;;;1.60;;
8694;SDS011;65580;49.446;6.854;2023-04-15T19:26:07;2.20;;;1.50;;
8694;SDS011;65580;49.446;6.854;2023-04-15T19:30:10;2.78;;;1.88;;
8694;SDS011;65580;49.446;6.854;2023-04-15T19:34:14;3.50;;;1.83;;
8694;SDS011;65580;49.446;6.854;2023-04-15T19:38:17;3.05;;;1.63;;
8694;SDS011;65580;49.446;6.854;2023-04-15T19:42:22;3.75;;;2.00;;
8694;SDS011;65580;49.446;6.854;2023-04-15T19:46:25;2.42;;;1.65;;
8694;SDS011;65580;49.446;6.854;2023-04-15T19:50:29;3.05;;;1.70;;
8694;SDS011;65580;49.446;6.854;2023-04-15T19:54:33;3.72;;;1.90;;
8694;SDS011;65580;49.446;6.854;2023-04-15T19:58:38;2.92;;;2.00;;
8694;SDS011;65580;49.446;6.854;2023-04-15T20:02:41;2.70;;;1.90;;
8694;SDS011;65580;49.446;6.854;2023-04-15T20:06:45;2.03;;;1.70;;
8694;SDS011;65580;49.446;6.854;2023-04-15T20:10:48;3.72;;;1.85;;
8694;SDS011;65580;49.446;6.854;2023-04-15T20:14:53;2.55;;;1.70;;
8694;SDS011;65580;49.446;6.854;2023-04-15T20:18:56;8.50;;;2.20;;
8694;SDS011;65580;49.446;6.854;2023-04-15T20:23:02;3.95;;;1.95;;
8694;SDS011;65580;49.446;6.854;2023-04-15T20:27:05;3.35;;;1.90;;
8694;SDS011;65580;49.446;6.854;2023-04-15T20:31:10;3.65;;;2.20;;
8694;SDS011;65580;49.446;6.854;2023-04-15T20:35:13;3.05;;;1.98;;
8694;SDS011;65580;49.446;6.854;2023-04-15T20:39:16;5.32;;;2.13;;
8694;SDS011;65580;49.446;6.854;2023-04-15T20:43:20;7.57;;;2.20;;
8694;SDS011;65580;49.446;6.854;2023-04-15T20:47:24;3.10;;;2.17;;
8694;SDS011;65580;49.446;6.854;2023-04-15T20:51:28;3.70;;;2.50;;
8694;SDS011;65580;49.446;6.854;2023-04-15T20:55:56;4.80;;;2.45;;
8694;SDS011;65580;49.446;6.854;2023-04-15T21:00:00;5.28;;;2.53;;
8694;SDS011;65580;49.446;6.854;2023-04-15T21:04:05;3.10;;;2.03;;
8694;SDS011;65580;49.446;6.854;2023-04-15T21:08:09;6.55;;;2.15;;
8694;SDS011;65580;49.446;6.854;2023-04-15T21:12:13;4.95;;;2.40;;
8694;SDS011;65580;49.446;6.854;2023-04-15T21:16:16;4.57;;;2.40;;
8694;SDS011;65580;49.446;6.854;2023-04-15T21:20:21;4.55;;;2.35;;
8694;SDS011;65580;49.446;6.854;2023-04-15T21:24:24;4.00;;;2.40;;
8694;SDS011;65580;49.446;6.854;2023-04-15T21:28:28;3.75;;;2.30;;
8694;SDS011;65580;49.446;6.854;2023-04-15T21:32:31;6.55;;;2.50;;
8694;SDS011;65580;49.446;6.854;2023-04-15T21:36:36;3.83;;;2.60;;
8694;SDS011;65580;49.446;6.854;2023-04-15T21:40:40;4.97;;;2.47;;
8694;SDS011;65580;49.446;6.854;2023-04-15T21:44:43;4.60;;;2.25;;
8694;SDS011;65580;49.446;6.854;2023-04-15T21:48:46;7.45;;;2.00;;
8694;SDS011;65580;49.446;6.854;2023-04-15T21:52:51;2.42;;;2.08;;
8694;SDS011;65580;49.446;6.854;2023-04-15T21:56:54;2.63;;;1.80;;
8694;SDS011;65580;49.446;6.854;2023-04-15T22:00:57;3.83;;;1.90;;
8694;SDS011;65580;49.446;6.854;2023-04-15T22:05:01;2.83;;;1.95;;
8694;SDS011;65580;49.446;6.854;2023-04-15T22:09:05;2.85;;;1.90;;
8694;SDS011;65580;49.446;6.854;2023-04-15T22:13:09;3.40;;;2.03;;
8694;SDS011;65580;49.446;6.854;2023-04-15T22:17:13;5.22;;;2.30;;
8694;SDS011;65580;49.446;6.854;2023-04-15T22:21:16;2.35;;;1.92;;
8694;SDS011;65580;49.446;6.854;2023-04-15T22:25:24;3.72;;;2.08;;
8694;SDS011;65580;49.446;6.854;2023-04-15T22:29:27;2.63;;;1.80;;
8694;SDS011;65580;49.446;6.854;2023-04-15T22:33:30;4.40;;;2.00;;
8694;SDS011;65580;49.446;6.854;2023-04-15T22:37:34;2.63;;;1.60;;
8694;SDS011;65580;49.446;6.854;2023-04-15T22:41:38;3.10;;;2.10;;
8694;SDS011;65580;49.446;6.854;2023-04-15T22:45:41;5.90;;;2.70;;
8694;SDS011;65580;49.446;6.854;2023-04-15T22:49:50;6.18;;;2.30;;
8694;SDS011;65580;49.446;6.854;2023-04-15T22:53:53;3.10;;;2.17;;
8694;SDS011;65580;49.446;6.854;2023-04-15T22:57:58;3.08;;;2.10;;
8694;SDS011;65580;49.446;6.854;2023-04-15T23:02:01;3.67;;;1.80;;
8694;SDS011;65580;49.446;6.854;2023-04-15T23:06:04;4.78;;;2.10;;
8694;SDS011;65580;49.446;6.854;2023-04-15T23:10:08;3.63;;;2.08;;
8694;SDS011;65580;49.446;6.854;2023-04-15T23:14:13;2.42;;;1.85;;
8694;SDS011;65580;49.446;6.854;2023-04-15T23:18:19;2.83;;;1.90;;
8694;SDS011;65580;49.446;6.854;2023-04-15T23:22:22;3.20;;;1.88;;
8694;SDS011;65580;49.446;6.854;2023-04-15T23:26:25;2.92;;;1.80;;
8694;SDS011;65580;49.446;6.854;2023-04-15T23:30:30;2.55;;;1.90;;
8694;SDS011;65580;49.446;6.854;2023-04-15T23:34:33;2.35;;;1.60;;
8694;SDS011;65580;49.446;6.854;2023-04-15T23:38:37;2.75;;;1.50;;
8694;SDS011;65580;49.446;6.854;2023-04-15T23:42:43;5.90;;;1.80;;
8694;SDS011;65580;49.446;6.854;2023-04-15T23:46:48;1.60;;;1.50;;
8694;SDS011;65580;49.446;6.854;2023-04-15T23:50:52;3.38;;;1.35;;
